createdAt,value
2019-03-29T00:00:00.923Z,15.90
2019-03-29T00:02:26.739Z,14.00
2019-03-29T00:04:52.949Z,12.63
2019-03-29T00:07:19.042Z,11.97
2019-03-29T00:09:44.900Z,14.10
2019-03-29T00:12:10.727Z,13.53
2019-03-29T00:14:36.672Z,11.77
2019-03-29T00:17:02.525Z,13.43
2019-03-29T00:19:28.399Z,12.30
2019-03-29T00:21:54.253Z,13.00
2019-03-29T00:24:20.091Z,11.10
2019-03-29T00:26:45.968Z,15.87
2019-03-29T00:29:11.790Z,12.73
2019-03-29T00:31:37.645Z,14.13
2019-03-29T00:34:03.465Z,12.27
2019-03-29T00:36:29.323Z,13.73
2019-03-29T00:38:55.189Z,16.67
2019-03-29T00:41:21.028Z,10.93
2019-03-29T00:43:46.874Z,12.20
2019-03-29T00:46:12.685Z,13.33
2019-03-29T00:48:38.542Z,11.40
2019-03-29T00:51:04.390Z,12.33
2019-03-29T00:53:30.243Z,10.43
2019-03-29T00:55:56.065Z,11.60
2019-03-29T00:58:22.299Z,10.73
2019-03-29T01:00:48.783Z,12.37
2019-03-29T01:03:14.642Z,10.17
2019-03-29T01:05:40.485Z,11.30
2019-03-29T01:08:08.305Z,11.30
2019-03-29T01:10:34.195Z,14.30
2019-03-29T01:13:00.048Z,11.60
2019-03-29T01:15:25.991Z,10.60
2019-03-29T01:17:51.825Z,13.70
2019-03-29T01:20:17.680Z,10.17
2019-03-29T01:22:43.520Z,11.73
2019-03-29T01:25:09.470Z,10.27
2019-03-29T01:27:35.415Z,13.83
2019-03-29T01:30:01.345Z,12.13
2019-03-29T01:32:27.199Z,10.50
2019-03-29T01:34:53.042Z,9.90
2019-03-29T01:37:19.766Z,11.07
2019-03-29T01:39:45.740Z,11.97
2019-03-29T01:42:11.698Z,11.87
2019-03-29T01:44:37.545Z,13.13
2019-03-29T01:47:04.061Z,11.80
2019-03-29T01:49:30.141Z,11.40
2019-03-29T01:51:56.003Z,10.43
2019-03-29T01:54:21.847Z,11.40
2019-03-29T01:56:47.804Z,8.80
2019-03-29T01:59:13.662Z,10.87
2019-03-29T02:01:39.493Z,10.43
2019-03-29T02:04:06.060Z,9.90
2019-03-29T02:06:32.100Z,11.23
2019-03-29T02:08:58.013Z,10.67
2019-03-29T02:11:23.864Z,10.10
2019-03-29T02:13:49.724Z,9.10
2019-03-29T02:16:15.570Z,9.37
2019-03-29T02:18:41.410Z,10.53
2019-03-29T02:21:07.245Z,9.97
2019-03-29T02:23:33.103Z,11.40
2019-03-29T02:25:58.935Z,8.90
2019-03-29T02:28:24.898Z,8.53
2019-03-29T02:30:50.752Z,11.53
2019-03-29T02:33:16.588Z,8.50
2019-03-29T02:35:42.467Z,8.60
2019-03-29T02:38:08.305Z,11.20
2019-03-29T02:40:34.152Z,10.00
2019-03-29T02:42:59.986Z,7.90
2019-03-29T02:45:25.950Z,8.50
2019-03-29T02:47:51.791Z,8.20
2019-03-29T02:50:17.626Z,8.17
2019-03-29T02:52:43.463Z,8.20
2019-03-29T02:55:09.443Z,9.57
2019-03-29T02:57:35.342Z,8.90
2019-03-29T03:00:01.845Z,8.40
2019-03-29T03:02:27.684Z,10.47
2019-03-29T03:04:53.529Z,8.93
2019-03-29T03:07:19.353Z,10.33
2019-03-29T03:09:45.201Z,10.00
2019-03-29T03:12:11.042Z,12.27
2019-03-29T03:14:36.902Z,11.60
2019-03-29T03:17:02.848Z,13.33
2019-03-29T03:19:28.693Z,12.77
2019-03-29T03:21:54.540Z,12.20
2019-03-29T03:24:20.391Z,13.00
2019-03-29T03:26:46.230Z,12.50
2019-03-29T03:29:12.060Z,13.00
2019-03-29T03:31:37.917Z,12.63
2019-03-29T03:34:03.778Z,18.00
2019-03-29T03:36:29.606Z,11.37
2019-03-29T03:38:55.443Z,14.73
2019-03-29T03:41:21.323Z,11.60
2019-03-29T03:43:47.144Z,15.10
2019-03-29T03:46:12.985Z,10.80
2019-03-29T03:48:38.825Z,13.83
2019-03-29T03:51:04.766Z,10.80
2019-03-29T03:53:30.701Z,11.60
2019-03-29T03:55:57.139Z,11.87
2019-03-29T03:58:23.805Z,13.23
2019-03-29T04:00:54.662Z,11.30
2019-03-29T04:03:21.219Z,10.17
2019-03-29T04:05:47.897Z,13.60
2019-03-29T04:08:13.819Z,10.63
2019-03-29T04:10:42.199Z,13.33
2019-03-29T04:13:07.565Z,11.30
2019-03-29T04:15:33.540Z,10.77
2019-03-29T04:17:59.389Z,11.60
2019-03-29T04:20:25.218Z,15.83
2019-03-29T04:22:51.050Z,15.50
2019-03-29T04:25:16.925Z,11.20
2019-03-29T04:27:42.752Z,30.50
2019-03-29T04:30:08.803Z,50.47
2019-03-29T04:32:34.673Z,80.87
2019-03-29T04:35:00.519Z,49.93
2019-03-29T04:37:26.371Z,48.00
2019-03-29T04:40:06.452Z,30.40
2019-03-29T04:42:20.004Z,27.00
2019-03-29T04:44:45.859Z,23.03
2019-03-29T04:47:11.712Z,15.50
2019-03-29T04:49:37.557Z,12.53
2019-03-29T04:52:03.413Z,11.50
2019-03-29T04:54:29.251Z,11.23
2019-03-29T04:56:55.084Z,11.10
2019-03-29T04:59:20.948Z,11.53
2019-03-29T05:01:46.785Z,12.10
2019-03-29T05:04:12.618Z,11.57
2019-03-29T05:06:38.486Z,10.47
2019-03-29T05:09:04.834Z,10.97
2019-03-29T05:11:30.678Z,10.47
2019-03-29T05:13:56.515Z,10.53
2019-03-29T05:16:22.366Z,10.93
2019-03-29T05:18:48.236Z,12.20
2019-03-29T05:21:14.111Z,14.40
2019-03-29T05:23:39.956Z,11.73
2019-03-29T05:26:05.809Z,11.27
2019-03-29T05:28:31.654Z,11.80
2019-03-29T05:30:57.495Z,11.03
2019-03-29T05:33:23.327Z,10.53
2019-03-29T05:35:49.197Z,11.30
2019-03-29T05:38:15.053Z,11.87
2019-03-29T05:40:41.008Z,11.10
2019-03-29T05:43:06.847Z,12.70
2019-03-29T05:45:34.808Z,12.17
2019-03-29T05:48:00.655Z,9.97
2019-03-29T05:50:26.555Z,12.13
2019-03-29T05:52:52.378Z,14.93
2019-03-29T05:55:18.773Z,15.40
2019-03-29T05:57:44.684Z,16.00
2019-03-29T06:00:12.629Z,16.57
2019-03-29T06:02:38.580Z,17.40
2019-03-29T06:05:04.538Z,14.13
2019-03-29T06:07:30.428Z,22.60
2019-03-29T06:09:56.279Z,17.67
2019-03-29T06:12:22.138Z,20.30
2019-03-29T06:14:47.997Z,20.67
2019-03-29T06:17:13.837Z,21.67
2019-03-29T06:19:39.814Z,18.70
2019-03-29T06:22:05.656Z,19.13
2019-03-29T06:24:31.509Z,20.37
2019-03-29T06:26:57.441Z,19.80
2019-03-29T06:29:23.315Z,21.53
2019-03-29T06:31:49.190Z,22.40
2019-03-29T06:34:15.014Z,20.40
2019-03-29T06:36:40.952Z,20.23
2019-03-29T06:39:07.953Z,19.63
2019-03-29T06:41:33.805Z,20.80
2019-03-29T06:43:59.638Z,15.40
2019-03-29T06:46:25.508Z,17.20
2019-03-29T06:48:51.355Z,17.50
2019-03-29T06:51:17.224Z,16.87
2019-03-29T06:53:43.034Z,15.13
2019-03-29T06:56:08.914Z,16.20
2019-03-29T06:58:34.764Z,16.03
2019-03-29T07:01:00.596Z,14.03
2019-03-29T07:03:26.427Z,19.50
2019-03-29T07:05:52.285Z,17.13
2019-03-29T07:08:18.127Z,16.33
2019-03-29T07:10:44.334Z,13.17
2019-03-29T07:13:10.184Z,14.17
2019-03-29T07:15:36.028Z,12.63
2019-03-29T07:18:01.880Z,14.13
2019-03-29T07:20:27.727Z,12.70
2019-03-29T07:22:53.555Z,12.03
2019-03-29T07:25:19.386Z,13.53
2019-03-29T07:27:52.066Z,12.90
2019-03-29T07:30:13.376Z,12.57
2019-03-29T07:32:39.241Z,10.80
2019-03-29T07:35:05.805Z,10.80
2019-03-29T07:37:31.655Z,13.20
2019-03-29T07:39:57.803Z,12.33
2019-03-29T07:42:23.640Z,13.03
2019-03-29T07:44:49.508Z,12.10
2019-03-29T07:47:15.448Z,11.20
2019-03-29T07:49:41.322Z,12.37
2019-03-29T07:52:07.178Z,10.83
2019-03-29T07:54:33.027Z,10.67
2019-03-29T07:56:58.873Z,15.93
2019-03-29T07:59:24.682Z,11.50
2019-03-29T08:01:50.531Z,12.67
2019-03-29T08:04:16.377Z,12.53
2019-03-29T08:06:42.212Z,10.37
2019-03-29T08:09:21.353Z,12.63
2019-03-29T08:11:46.249Z,11.53
2019-03-29T08:14:03.562Z,13.10
2019-03-29T08:16:29.441Z,10.67
2019-03-29T08:18:55.304Z,11.97
2019-03-29T08:21:21.553Z,14.33
2019-03-29T08:23:47.415Z,10.80
2019-03-29T08:26:13.242Z,10.90
2019-03-29T08:28:39.091Z,11.40
2019-03-29T08:31:05.041Z,13.83
2019-03-29T08:33:30.884Z,11.70
2019-03-29T08:35:56.709Z,13.30
2019-03-29T08:38:22.588Z,15.03
2019-03-29T08:40:48.426Z,14.87
2019-03-29T08:43:14.288Z,12.43
2019-03-29T08:45:40.223Z,9.30
2019-03-29T08:48:06.817Z,10.00
2019-03-29T08:50:32.824Z,9.40
2019-03-29T08:52:58.651Z,9.70
2019-03-29T08:55:24.528Z,9.40
2019-03-29T08:57:50.400Z,11.43
2019-03-29T09:00:20.019Z,12.47
2019-03-29T09:02:45.964Z,10.83
2019-03-29T09:05:11.906Z,11.00
2019-03-29T09:07:44.468Z,11.10
2019-03-29T09:10:21.483Z,10.00
2019-03-29T09:12:47.334Z,10.73
2019-03-29T09:15:13.155Z,8.43
2019-03-29T09:17:39.035Z,9.60
2019-03-29T09:20:05.183Z,9.13
2019-03-29T09:22:31.053Z,7.80
2019-03-29T09:24:56.886Z,8.50
2019-03-29T09:27:22.776Z,10.47
2019-03-29T09:29:48.635Z,9.53
2019-03-29T09:32:14.558Z,8.77
2019-03-29T09:34:40.408Z,8.57
2019-03-29T09:37:06.269Z,8.30
2019-03-29T09:39:32.133Z,8.87
2019-03-29T09:41:57.972Z,9.83
2019-03-29T09:44:23.936Z,7.43
2019-03-29T09:46:49.767Z,7.60
2019-03-29T09:49:15.634Z,8.70
2019-03-29T09:51:41.480Z,7.17
2019-03-29T09:54:07.334Z,7.40
2019-03-29T09:56:39.139Z,7.10
2019-03-29T09:59:01.041Z,6.50
2019-03-29T10:01:27.080Z,8.77
2019-03-29T10:03:53.067Z,7.43
2019-03-29T10:06:18.903Z,7.93
2019-03-29T10:08:44.745Z,8.23
2019-03-29T10:11:10.641Z,7.87
2019-03-29T10:13:36.498Z,8.87
2019-03-29T10:16:02.327Z,7.97
2019-03-29T10:18:28.187Z,7.77
2019-03-29T10:20:54.036Z,8.23
2019-03-29T10:23:19.877Z,8.20
2019-03-29T10:25:45.731Z,7.93
2019-03-29T10:28:11.590Z,7.63
2019-03-29T10:30:41.673Z,7.40
2019-03-29T10:33:07.618Z,7.93
2019-03-29T10:35:34.276Z,7.37
2019-03-29T10:38:00.227Z,6.67
2019-03-29T10:40:26.099Z,7.43
2019-03-29T10:42:58.190Z,6.57
2019-03-29T10:45:19.786Z,7.13
2019-03-29T10:47:45.615Z,6.57
2019-03-29T10:50:11.589Z,7.73
2019-03-29T10:52:37.423Z,8.03
2019-03-29T10:55:03.996Z,7.80
2019-03-29T10:57:29.857Z,8.50
2019-03-29T10:59:55.813Z,8.10
2019-03-29T11:02:21.661Z,6.97
2019-03-29T11:04:47.528Z,7.30
2019-03-29T11:07:13.387Z,7.47
2019-03-29T11:09:39.219Z,8.00
2019-03-29T11:12:05.271Z,8.60
2019-03-29T11:14:31.203Z,6.23
2019-03-29T11:16:57.046Z,6.27
2019-03-29T11:19:22.889Z,11.93
2019-03-29T11:21:48.741Z,6.97
2019-03-29T11:24:14.681Z,6.57
2019-03-29T11:26:40.537Z,6.97
2019-03-29T11:29:06.380Z,7.13
2019-03-29T11:31:32.238Z,9.23
2019-03-29T11:33:58.070Z,7.00
2019-03-29T11:36:23.941Z,6.90
2019-03-29T11:38:49.817Z,6.20
2019-03-29T11:41:15.760Z,9.43
2019-03-29T11:43:41.633Z,8.07
2019-03-29T11:46:07.488Z,7.27
2019-03-29T11:48:33.361Z,7.00
2019-03-29T11:50:59.296Z,9.80
2019-03-29T11:53:25.280Z,7.60
2019-03-29T11:55:51.118Z,8.37
2019-03-29T11:58:16.947Z,8.17
2019-03-29T12:00:42.796Z,8.90
2019-03-29T12:03:09.612Z,8.43
2019-03-29T12:05:36.412Z,8.90
2019-03-29T12:08:02.761Z,8.30
2019-03-29T12:10:28.696Z,7.67
2019-03-29T12:12:54.548Z,10.33
2019-03-29T12:15:20.583Z,9.87
2019-03-29T12:17:46.433Z,10.53
2019-03-29T12:20:12.274Z,8.70
2019-03-29T12:22:38.142Z,10.57
2019-03-29T12:25:05.178Z,9.50
2019-03-29T12:27:31.030Z,11.60
2019-03-29T12:29:56.983Z,10.77
2019-03-29T12:32:22.843Z,10.53
2019-03-29T12:34:48.688Z,9.33
2019-03-29T12:37:14.623Z,9.60
2019-03-29T12:39:40.480Z,10.10
2019-03-29T12:42:06.667Z,9.57
2019-03-29T12:44:32.539Z,10.50
2019-03-29T12:46:58.392Z,10.03
2019-03-29T12:49:24.245Z,10.07
2019-03-29T12:51:50.092Z,9.83
2019-03-29T12:54:15.967Z,9.80
2019-03-29T12:56:42.204Z,8.50
2019-03-29T12:59:08.212Z,9.03
2019-03-29T13:01:39.849Z,9.60
2019-03-29T13:04:02.231Z,9.40
2019-03-29T13:06:28.123Z,8.90
2019-03-29T13:08:54.013Z,8.13
2019-03-29T13:11:19.880Z,8.33
2019-03-29T13:13:45.736Z,8.40
2019-03-29T13:16:11.716Z,7.27
2019-03-29T13:18:37.572Z,9.90
2019-03-29T13:21:03.537Z,9.10
2019-03-29T13:23:29.430Z,9.03
2019-03-29T13:25:55.267Z,8.33
2019-03-29T13:28:21.249Z,8.47
2019-03-29T13:30:47.200Z,9.30
2019-03-29T13:33:13.141Z,9.57
2019-03-29T13:35:39.001Z,8.30
2019-03-29T13:38:05.048Z,18.23
2019-03-29T13:40:30.943Z,12.30
2019-03-29T13:42:56.780Z,54.33
2019-03-29T13:45:22.654Z,22.93
2019-03-29T13:47:48.511Z,11.10
2019-03-29T13:50:14.470Z,9.20
2019-03-29T13:52:42.206Z,9.43
2019-03-29T13:55:08.320Z,7.63
2019-03-29T13:57:34.295Z,8.70
2019-03-29T14:00:00.770Z,7.60
2019-03-29T14:02:26.648Z,8.83
2019-03-29T14:04:52.499Z,8.93
2019-03-29T14:07:18.372Z,9.07
2019-03-29T14:09:44.223Z,8.10
2019-03-29T14:12:10.112Z,8.87
2019-03-29T14:14:38.514Z,9.60
2019-03-29T14:17:03.744Z,7.07
2019-03-29T14:19:31.074Z,7.10
2019-03-29T14:21:56.982Z,8.60
2019-03-29T14:24:22.960Z,8.83
2019-03-29T14:26:48.816Z,7.87
2019-03-29T14:29:14.781Z,7.90
2019-03-29T14:31:40.666Z,8.23
2019-03-29T14:34:06.566Z,8.47
2019-03-29T14:36:32.418Z,10.87
2019-03-29T14:38:58.297Z,8.13
2019-03-29T14:41:24.146Z,9.30
2019-03-29T14:43:50.016Z,9.87
2019-03-29T14:46:15.853Z,8.30
2019-03-29T14:48:41.712Z,8.77
2019-03-29T14:51:07.566Z,8.87
2019-03-29T14:53:33.478Z,8.20
2019-03-29T14:55:59.309Z,7.50
2019-03-29T14:58:25.184Z,8.77
2019-03-29T15:00:51.360Z,9.40
2019-03-29T15:03:17.211Z,8.97
2019-03-29T15:05:43.063Z,9.10
2019-03-29T15:08:09.023Z,8.43
2019-03-29T15:10:34.889Z,7.83
2019-03-29T15:13:00.815Z,8.90
2019-03-29T15:15:26.687Z,8.30
2019-03-29T15:17:52.520Z,8.50
2019-03-29T15:20:18.569Z,9.57
2019-03-29T15:22:44.448Z,9.53
2019-03-29T15:25:10.287Z,9.17
2019-03-29T15:27:36.182Z,8.30
2019-03-29T15:30:04.748Z,8.53
2019-03-29T15:32:30.615Z,8.60
2019-03-29T15:34:56.523Z,9.80
2019-03-29T15:37:22.657Z,9.27
2019-03-29T15:39:48.524Z,8.07
2019-03-29T15:42:14.431Z,8.23
2019-03-29T15:44:40.305Z,8.80
2019-03-29T15:47:06.153Z,9.60
2019-03-29T15:49:32.008Z,9.13
2019-03-29T15:51:58.131Z,8.43
2019-03-29T15:54:24.021Z,8.97
2019-03-29T15:56:49.870Z,9.90
2019-03-29T15:59:15.731Z,8.00
2019-03-29T16:01:41.569Z,10.00
2019-03-29T16:04:07.422Z,9.53
2019-03-29T16:06:33.273Z,9.53
2019-03-29T16:08:59.140Z,8.87
2019-03-29T16:11:24.979Z,9.63
2019-03-29T16:13:52.138Z,10.20
2019-03-29T16:16:18.742Z,8.83
2019-03-29T16:18:45.133Z,8.70
2019-03-29T16:21:10.990Z,9.60
2019-03-29T16:23:36.820Z,8.10
2019-03-29T16:26:02.903Z,8.23
2019-03-29T16:28:28.767Z,8.10
2019-03-29T16:30:54.633Z,9.50
2019-03-29T16:33:20.499Z,8.47
2019-03-29T16:35:46.374Z,7.97
2019-03-29T16:38:12.236Z,8.27
2019-03-29T16:40:38.107Z,7.87
2019-03-29T16:43:03.994Z,8.00
2019-03-29T16:45:29.935Z,7.90
2019-03-29T16:47:55.789Z,11.93
2019-03-29T16:50:21.664Z,7.97
2019-03-29T16:52:47.486Z,8.27
2019-03-29T16:55:14.187Z,7.73
2019-03-29T16:57:40.731Z,7.97
2019-03-29T17:00:12.142Z,6.57
2019-03-29T17:02:37.344Z,7.80
2019-03-29T17:05:05.289Z,6.73
2019-03-29T17:07:31.166Z,8.40
2019-03-29T17:09:57.018Z,6.80
2019-03-29T17:12:22.861Z,7.60
2019-03-29T17:14:48.832Z,8.80
2019-03-29T17:17:14.702Z,8.10
2019-03-29T17:19:40.579Z,10.60
2019-03-29T17:22:06.426Z,11.57
2019-03-29T17:24:32.361Z,8.50
2019-03-29T17:26:58.221Z,9.77
2019-03-29T17:29:24.085Z,8.67
2019-03-29T17:31:49.933Z,9.13
2019-03-29T17:34:15.787Z,9.83
2019-03-29T17:36:41.649Z,7.70
2019-03-29T17:39:07.658Z,7.33
2019-03-29T17:41:33.560Z,8.93
2019-03-29T17:43:59.429Z,8.60
2019-03-29T17:46:25.304Z,11.00
2019-03-29T17:48:51.170Z,9.10
2019-03-29T17:51:17.041Z,8.60
2019-03-29T17:53:44.059Z,10.00
2019-03-29T17:56:10.029Z,9.53
2019-03-29T17:58:35.922Z,9.70
2019-03-29T18:01:03.115Z,10.00
2019-03-29T18:03:29.082Z,13.00
2019-03-29T18:05:56.490Z,16.70
2019-03-29T18:08:22.459Z,9.30
2019-03-29T18:10:48.323Z,10.27
2019-03-29T18:13:14.230Z,8.47
2019-03-29T18:15:40.085Z,9.80
2019-03-29T18:18:05.972Z,9.43
2019-03-29T18:20:31.872Z,12.20
2019-03-29T18:22:57.835Z,9.37
2019-03-29T18:25:23.817Z,10.77
2019-03-29T18:27:49.705Z,11.53
2019-03-29T18:30:19.376Z,8.10
2019-03-29T18:32:45.237Z,14.23
2019-03-29T18:35:11.903Z,12.37
2019-03-29T18:37:37.854Z,11.10
2019-03-29T18:40:04.534Z,12.40
2019-03-29T18:42:30.399Z,13.80
2019-03-29T18:44:56.461Z,12.03
2019-03-29T18:47:22.299Z,11.00
2019-03-29T18:49:48.179Z,11.73
2019-03-29T18:52:14.034Z,9.90
2019-03-29T18:54:39.868Z,11.67
2019-03-29T18:57:05.831Z,9.80
2019-03-29T18:59:31.673Z,10.13
2019-03-29T19:01:57.530Z,10.60
2019-03-29T19:04:23.382Z,10.83
2019-03-29T19:06:49.215Z,12.47
2019-03-29T19:09:15.099Z,10.47
2019-03-29T19:11:41.000Z,13.27
2019-03-29T19:14:06.935Z,14.00
2019-03-29T19:16:32.780Z,11.67
2019-03-29T19:19:09.479Z,11.10
2019-03-29T19:21:26.513Z,13.60
2019-03-29T19:23:52.376Z,13.13
2019-03-29T19:26:18.556Z,12.40
2019-03-29T19:28:44.500Z,11.93
2019-03-29T19:31:10.909Z,14.93
2019-03-29T19:33:36.899Z,13.30
2019-03-29T19:36:02.849Z,11.87
2019-03-29T19:38:28.860Z,12.10
2019-03-29T19:40:54.763Z,12.20
2019-03-29T19:43:20.673Z,13.43
2019-03-29T19:45:46.535Z,12.77
2019-03-29T19:48:12.427Z,13.60
2019-03-29T19:50:38.275Z,13.60
2019-03-29T19:53:04.133Z,26.73
2019-03-29T19:55:30.090Z,37.37
2019-03-29T19:57:56.021Z,44.87
2019-03-29T20:00:25.703Z,64.10
2019-03-29T20:02:51.594Z,62.60
2019-03-29T20:05:25.557Z,67.30
2019-03-29T20:07:52.245Z,55.33
2019-03-29T20:10:18.401Z,55.40
2019-03-29T20:12:44.305Z,47.37
2019-03-29T20:15:10.158Z,38.70
2019-03-29T20:17:36.030Z,40.50
2019-03-29T20:20:04.450Z,29.50
2019-03-29T20:22:30.334Z,30.70
2019-03-29T20:24:56.172Z,39.40
2019-03-29T20:27:22.037Z,18.43
2019-03-29T20:29:48.175Z,17.17
2019-03-29T20:32:14.040Z,17.73
2019-03-29T20:34:39.902Z,26.40
2019-03-29T20:37:08.854Z,27.03
2019-03-29T20:39:33.547Z,17.53
2019-03-29T20:41:59.387Z,16.87
2019-03-29T20:44:25.261Z,14.67
2019-03-29T20:46:51.107Z,28.93
2019-03-29T20:49:17.001Z,20.13
2019-03-29T20:51:42.836Z,17.70
2019-03-29T20:54:08.725Z,20.07
2019-03-29T20:56:34.580Z,21.77
2019-03-29T20:59:00.436Z,20.53
2019-03-29T21:01:26.290Z,27.67
2019-03-29T21:03:52.151Z,29.63
2019-03-29T21:06:18.026Z,29.30
2019-03-29T21:08:43.889Z,20.70
2019-03-29T21:11:09.786Z,22.83
2019-03-29T21:13:35.664Z,21.30
2019-03-29T21:16:01.542Z,23.50
2019-03-29T21:18:27.487Z,15.03
2019-03-29T21:20:53.361Z,12.63
2019-03-29T21:23:19.193Z,13.57
2019-03-29T21:25:45.108Z,12.40
2019-03-29T21:28:10.869Z,12.70
2019-03-29T21:30:36.839Z,10.70
2019-03-29T21:33:02.733Z,12.07
2019-03-29T21:35:28.569Z,10.57
2019-03-29T21:37:54.743Z,11.23
2019-03-29T21:40:20.636Z,10.20
2019-03-29T21:42:47.326Z,12.63
2019-03-29T21:45:27.676Z,7.60
2019-03-29T21:47:41.055Z,16.07
2019-03-29T21:50:07.515Z,8.77
2019-03-29T21:52:33.361Z,9.30
2019-03-29T21:54:59.205Z,8.57
2019-03-29T21:57:25.106Z,7.70
2019-03-29T21:59:51.722Z,8.00
2019-03-29T22:02:17.575Z,9.80
2019-03-29T22:04:43.463Z,9.93
2019-03-29T22:07:09.324Z,9.00
2019-03-29T22:09:37.046Z,8.00
2019-03-29T22:12:03.142Z,7.73
2019-03-29T22:14:28.996Z,9.30
2019-03-29T22:16:54.891Z,11.93
2019-03-29T22:19:20.723Z,12.17
2019-03-29T22:21:46.580Z,6.83
2019-03-29T22:24:14.321Z,7.00
2019-03-29T22:26:40.221Z,10.97
2019-03-29T22:29:06.247Z,9.17
2019-03-29T22:31:32.127Z,8.37
2019-03-29T22:33:57.953Z,10.50
2019-03-29T22:36:23.796Z,8.70
2019-03-29T22:38:49.666Z,9.33
2019-03-29T22:41:15.549Z,9.33
2019-03-29T22:43:41.401Z,9.53
2019-03-29T22:46:07.556Z,7.33
2019-03-29T22:48:33.414Z,9.13
2019-03-29T22:50:59.282Z,8.03
2019-03-29T22:53:25.098Z,6.87
2019-03-29T22:55:50.960Z,9.17
2019-03-29T22:58:18.703Z,8.00
2019-03-29T23:00:48.923Z,8.43
2019-03-29T23:03:15.276Z,9.00
2019-03-29T23:05:41.127Z,6.93
2019-03-29T23:08:06.985Z,13.00
2019-03-29T23:10:32.928Z,8.47
2019-03-29T23:12:58.749Z,8.97
2019-03-29T23:15:24.910Z,8.93
2019-03-29T23:17:50.762Z,13.27
2019-03-29T23:20:16.597Z,8.90
2019-03-29T23:22:42.428Z,7.87
2019-03-29T23:25:09.526Z,8.47
2019-03-29T23:27:35.505Z,8.37
2019-03-29T23:30:01.943Z,10.63
2019-03-29T23:32:27.779Z,9.70
2019-03-29T23:34:53.698Z,10.10
2019-03-29T23:37:19.645Z,9.03
2019-03-29T23:39:45.733Z,8.07
2019-03-29T23:42:11.724Z,8.23
2019-03-29T23:44:37.584Z,7.00
2019-03-29T23:47:03.467Z,7.97
2019-03-29T23:49:29.310Z,7.57
2019-03-29T23:51:55.173Z,8.67
2019-03-29T23:54:21.018Z,10.20
2019-03-29T23:56:47.181Z,8.80
2019-03-29T23:59:13.033Z,14.90
